Time;durP1;ratioP1;P1;durP2;ratioP2;P2;SDS_P1;SDS_P2;PMS_P1;PMS_P2;Temp;Humidity;BMP_temperature;BMP_pressure;BME280_temperature;BME280_humidity;BME280_pressure;Samples;Min_cycle;Max_cycle;Signal;HPM_P1;HPM_P2
2021/05/30 00:02:19;;;;;;;;;;;;;;;4.28;94.93;102894.16;5058666;28;1190;-81
2021/05/30 00:04:45;;;;;;;;;;;;;;;4.26;94.88;102899.88;5056772;28;1974;-82
2021/05/30 00:07:11;;;;;;;;;;;;;;;4.28;95.63;102889.50;5075795;28;1276;-80
2021/05/30 00:09:40;;;;;;;;;;;;;;;4.28;95.28;102894.97;5074982;28;1879;-80
2021/05/30 00:12:10;;;;;;;;;;;;;;;4.30;95.51;102889.25;5076881;28;1097;-79
2021/05/30 00:14:36;;;;;;;;;;;;;;;4.30;95.57;102895.56;5077565;28;1160;-79
2021/05/30 00:17:02;;;;;;;;;;;;;;;4.29;95.21;102898.53;5070266;28;1872;-80
2021/05/30 00:19:27;;;;;;;;;;;;;;;4.26;95.05;102899.88;5057769;28;1876;-79
2021/05/30 00:21:55;;;;;;;;;;;;;;;4.25;95.80;102894.66;5057245;28;1003;-80
2021/05/30 00:24:21;;;;;;;;;;;;;;;4.24;95.25;102896.56;5057876;28;991;-80
2021/05/30 00:26:46;;;;;;;;;;;;;;;4.23;95.79;102894.91;5056907;28;987;-80
2021/05/30 00:29:12;;;;;;;;;;;;;;;4.21;95.26;102888.88;5038374;28;1938;-80
2021/05/30 00:31:38;;;;;;;;;;;;;;;4.17;95.47;102884.13;5069755;28;1433;-81
2021/05/30 00:34:03;;;;;;;;;;;;;;;4.16;95.81;102883.31;5064793;28;1832;-80
2021/05/30 00:36:29;;;;;;;;;;;;;;;4.11;95.58;102883.25;5072681;28;952;-81
2021/05/30 00:39:00;;;;;;;;;;;;;;;4.07;95.35;102873.88;5087228;28;1282;-81
2021/05/30 00:41:27;;;;;;;;;;;;;;;4.10;95.40;102873.38;5071093;28;1089;-81
2021/05/30 00:43:57;;;;;;;;;;;;;;;4.05;95.87;102890.53;5053341;28;1249;-80
2021/05/30 00:46:23;;;;;;;;;;;;;;;4.01;95.66;102886.63;5070200;28;1186;-82
2021/05/30 00:48:49;;;;;;;;;;;;;;;3.98;95.87;102881.69;5043780;28;1983;-80
2021/05/30 00:51:15;;;;;;;;;;;;;;;3.92;96.21;102882.66;5048412;28;1852;-81
2021/05/30 00:53:43;;;;;;;;;;;;;;;3.89;96.30;102885.91;5069749;28;1140;-80
2021/05/30 00:56:16;;;;;;;;;;;;;;;3.84;96.21;102877.59;5071035;28;888;-80
2021/05/30 00:58:42;;;;;;;;;;;;;;;3.81;95.58;102883.56;5052969;28;1366;-81
2021/05/30 01:01:08;;;;;;;;;;;;;;;3.80;96.07;102876.47;5053422;28;1173;-81
2021/05/30 01:03:36;;;;;;;;;;;;;;;3.83;96.33;102876.78;5040956;28;1947;-80
2021/05/30 01:06:02;;;;;;;;;;;;;;;3.89;96.38;102873.06;5052983;28;1318;-81
2021/05/30 01:08:28;;;;;;;;;;;;;;;3.97;96.96;102876.47;5068905;28;1933;-80
2021/05/30 01:10:57;;;;;;;;;;;;;;;4.00;96.60;102885.00;5086328;28;1056;-80
2021/05/30 01:13:24;;;;;;;;;;;;;;;4.01;96.83;102872.97;5070206;28;1058;-80
2021/05/30 01:15:50;;;;;;;;;;;;;;;3.99;96.66;102880.59;5049585;28;1860;-80
2021/05/30 01:18:26;;;;;;;;;;;;;;;3.89;96.45;102880.44;5052762;28;1943;-81
2021/05/30 01:20:54;;;;;;;;;;;;;;;3.82;96.46;102875.13;5052254;28;1220;-80
2021/05/30 01:23:21;;;;;;;;;;;;;;;3.80;96.49;102874.53;5069193;28;1453;-80
2021/05/30 01:25:48;;;;;;;;;;;;;;;3.82;95.80;102866.91;5070197;28;825;-80
2021/05/30 01:28:15;;;;;;;;;;;;;;;3.82;96.72;102869.66;5036658;28;2025;-83
2021/05/30 01:30:41;;;;;;;;;;;;;;;3.85;96.20;102871.91;5038196;28;1904;-80
2021/05/30 01:33:10;;;;;;;;;;;;;;;3.82;96.38;102869.66;5053636;28;1872;-81
2021/05/30 01:35:35;;;;;;;;;;;;;;;3.73;96.27;102873.88;5035514;28;1345;-81
2021/05/30 01:38:01;;;;;;;;;;;;;;;3.64;96.44;102872.66;5031576;28;1299;-81
2021/05/30 01:40:27;;;;;;;;;;;;;;;3.59;96.66;102870.66;5036247;28;1099;-80
2021/05/30 01:42:55;;;;;;;;;;;;;;;3.55;96.55;102870.31;5053043;28;1290;-81
2021/05/30 01:45:22;;;;;;;;;;;;;;;3.51;96.20;102881.97;5043014;28;2067;-80
2021/05/30 01:47:48;;;;;;;;;;;;;;;3.47;96.19;102887.09;5044620;28;1983;-81
2021/05/30 01:50:20;;;;;;;;;;;;;;;3.44;96.82;102893.03;5036618;28;2017;-81
2021/05/30 01:52:49;;;;;;;;;;;;;;;3.37;96.83;102893.22;5035616;28;1110;-81
2021/05/30 01:55:23;;;;;;;;;;;;;;;3.34;96.76;102901.03;5043186;28;2036;-82
2021/05/30 01:57:53;;;;;;;;;;;;;;;3.29;96.44;102890.88;5040845;28;1916;-81
2021/05/30 02:00:20;;;;;;;;;;;;;;;3.25;96.44;102894.34;5069244;28;1245;-81
2021/05/30 02:02:54;;;;;;;;;;;;;;;3.22;97.25;102892.94;5052213;28;1215;-81
2021/05/30 02:05:21;;;;;;;;;;;;;;;3.23;96.77;102893.75;5087962;28;1796;-81
2021/05/30 02:07:51;;;;;;;;;;;;;;;3.19;97.26;102890.69;5054082;28;1197;-81
2021/05/30 02:10:18;;;;;;;;;;;;;;;3.19;97.76;102902.44;5073241;28;1894;-81
2021/05/30 02:12:52;;;;;;;;;;;;;;;3.19;97.58;102896.16;5055448;28;1080;-80
2021/05/30 02:15:21;;;;;;;;;;;;;;;3.18;97.81;102891.75;5055050;28;1920;-82
2021/05/30 02:17:51;;;;;;;;;;;;;;;3.16;97.59;102889.25;5055284;28;1292;-80
2021/05/30 02:20:39;;;;;;;;;;;;;;;3.14;97.00;102896.03;5087872;28;1738;-81
2021/05/30 02:23:12;;;;;;;;;;;;;;;3.11;97.13;102894.63;5073953;28;868;-81
2021/05/30 02:25:42;;;;;;;;;;;;;;;3.08;97.53;102897.00;5056786;28;1193;-81
2021/05/30 02:28:07;;;;;;;;;;;;;;;3.05;97.75;102889.31;5065615;28;1983;-81
2021/05/30 02:30:33;;;;;;;;;;;;;;;3.03;97.11;102892.28;5035226;28;1149;-81
2021/05/30 02:32:59;;;;;;;;;;;;;;;3.04;97.28;102888.47;5068453;28;1855;-81
2021/05/30 02:35:24;;;;;;;;;;;;;;;3.05;98.01;102892.88;5053976;28;1218;-82
2021/05/30 02:37:51;;;;;;;;;;;;;;;3.11;98.27;102886.44;5071345;28;1291;-80
2021/05/30 02:40:19;;;;;;;;;;;;;;;3.11;97.99;102883.69;5071964;28;1051;-80
2021/05/30 02:42:44;;;;;;;;;;;;;;;3.10;97.65;102889.44;5060755;28;2238;-81
2021/05/30 02:45:12;;;;;;;;;;;;;;;3.08;97.57;102886.94;5035723;28;1325;-80
2021/05/30 02:47:38;;;;;;;;;;;;;;;3.07;98.06;102892.63;5035101;28;1353;-80
2021/05/30 02:50:05;;;;;;;;;;;;;;;3.03;98.26;102884.09;5052357;28;2028;-81
2021/05/30 02:52:30;;;;;;;;;;;;;;;3.00;97.68;102888.13;5054892;28;1200;-82
2021/05/30 02:54:59;;;;;;;;;;;;;;;3.00;98.25;102895.50;5055301;28;1172;-81
2021/05/30 02:57:27;;;;;;;;;;;;;;;2.98;98.10;102893.00;5036461;28;1876;-81
2021/05/30 02:59:53;;;;;;;;;;;;;;;3.00;98.03;102895.50;5047518;28;1888;-81
2021/05/30 03:02:19;;;;;;;;;;;;;;;2.99;97.76;102899.28;5071166;28;1151;-81
2021/05/30 03:04:47;;;;;;;;;;;;;;;2.96;98.02;102895.16;5055736;28;2033;-81
2021/05/30 03:07:13;;;;;;;;;;;;;;;2.95;98.22;102901.69;5032880;28;1189;-81
2021/05/30 03:09:38;;;;;;;;;;;;;;;2.98;98.08;102893.00;5070087;28;1915;-81
2021/05/30 03:12:05;;;;;;;;;;;;;;;3.01;98.26;102895.25;5053269;28;1183;-83
2021/05/30 03:14:31;;;;;;;;;;;;;;;3.05;98.67;102895.59;5070596;28;1057;-81
2021/05/30 03:16:57;;;;;;;;;;;;;;;3.10;98.08;102900.34;5086860;28;1385;-80
2021/05/30 03:19:24;;;;;;;;;;;;;;;3.13;98.97;102899.84;5054083;28;1986;-80
2021/05/30 03:21:50;;;;;;;;;;;;;;;3.16;98.65;102905.63;5081473;28;1827;-81
2021/05/30 03:24:19;;;;;;;;;;;;;;;3.16;98.68;102902.91;5052678;28;1058;-80
2021/05/30 03:26:44;;;;;;;;;;;;;;;3.14;98.69;102902.31;5053272;28;1070;-81
2021/05/30 03:29:09;;;;;;;;;;;;;;;3.14;98.79;102910.50;5035169;28;1891;-81
2021/05/30 03:31:36;;;;;;;;;;;;;;;3.16;97.81;102902.91;5052004;28;1474;-81
2021/05/30 03:34:01;;;;;;;;;;;;;;;3.15;97.88;102904.00;5063130;28;1912;-81
2021/05/30 03:36:28;;;;;;;;;;;;;;;3.18;98.73;102905.41;5077878;28;1072;-80
2021/05/30 03:39:01;;;;;;;;;;;;;;;3.22;98.67;102903.84;5075999;28;1257;-80
2021/05/30 03:41:34;;;;;;;;;;;;;;;3.25;98.69;102906.06;5073165;28;1316;-81
2021/05/30 03:44:01;;;;;;;;;;;;;;;3.32;98.46;102905.94;5054355;28;1319;-82
2021/05/30 03:46:27;;;;;;;;;;;;;;;3.36;98.96;102899.75;5070184;28;1283;-82
2021/05/30 03:48:56;;;;;;;;;;;;;;;3.41;98.50;102909.09;5069141;28;1923;-82
2021/05/30 03:51:24;;;;;;;;;;;;;;;3.44;98.85;102906.69;5070276;28;1111;-81
2021/05/30 03:53:52;;;;;;;;;;;;;;;3.47;97.96;102906.22;5071498;28;777;-81
2021/05/30 03:56:21;;;;;;;;;;;;;;;3.55;98.30;102902.28;5069929;28;1176;-80
2021/05/30 03:58:46;;;;;;;;;;;;;;;3.68;98.95;102912.06;5069842;28;1290;-81
2021/05/30 04:01:12;;;;;;;;;;;;;;;3.92;99.39;102918.22;5052845;28;2122;-81
2021/05/30 04:03:38;;;;;;;;;;;;;;;4.24;99.12;102917.59;5051380;28;1911;-81
2021/05/30 04:06:04;;;;;;;;;;;;;;;4.44;100.00;102917.09;5050494;28;1209;-81
2021/05/30 04:08:29;;;;;;;;;;;;;;;4.57;99.98;102924.09;5067907;28;1934;-81
2021/05/30 04:10:55;;;;;;;;;;;;;;;4.69;99.45;102916.63;5070198;28;1026;-81
2021/05/30 04:13:23;;;;;;;;;;;;;;;4.85;99.05;102909.44;5052808;28;1155;-81
2021/05/30 04:15:52;;;;;;;;;;;;;;;5.07;99.21;102912.19;5045670;28;2092;-81
2021/05/30 04:18:22;;;;;;;;;;;;;;;5.37;99.27;102916.34;5050142;28;1998;-81
2021/05/30 04:20:48;;;;;;;;;;;;;;;5.63;99.34;102914.69;5068097;28;1058;-81
2021/05/30 04:23:13;;;;;;;;;;;;;;;5.86;98.87;102913.50;5070369;28;1064;-81
2021/05/30 04:25:41;;;;;;;;;;;;;;;5.96;98.32;102905.41;5071497;28;865;-81
2021/05/30 04:28:06;;;;;;;;;;;;;;;6.15;97.95;102910.50;5054940;28;1942;-81
2021/05/30 04:30:32;;;;;;;;;;;;;;;6.37;97.63;102910.38;5032743;28;1209;-81
2021/05/30 04:32:57;;;;;;;;;;;;;;;6.61;97.19;102915.44;5036886;28;1867;-80
2021/05/30 04:35:23;;;;;;;;;;;;;;;6.65;96.30;102913.81;5069741;28;1062;-81
2021/05/30 04:37:48;;;;;;;;;;;;;;;6.77;96.05;102918.00;5052338;28;1245;-81
2021/05/30 04:40:14;;;;;;;;;;;;;;;6.96;95.22;102917.53;5052201;28;2291;-81
2021/05/30 04:42:40;;;;;;;;;;;;;;;7.18;94.85;102913.75;5069971;28;1090;-81
2021/05/30 04:45:07;;;;;;;;;;;;;;;7.32;94.23;102914.91;5052335;28;1197;-81
2021/05/30 04:47:33;;;;;;;;;;;;;;;7.45;94.18;102917.13;5067597;28;1971;-81
2021/05/30 04:49:59;;;;;;;;;;;;;;;7.55;93.26;102913.56;5054523;28;1882;-81
2021/05/30 04:52:24;;;;;;;;;;;;;;;7.57;92.41;102916.88;5050549;28;864;-81
2021/05/30 04:54:49;;;;;;;;;;;;;;;7.64;92.19;102916.59;5049515;28;1045;-81
2021/05/30 04:57:15;;;;;;;;;;;;;;;7.76;91.97;102913.59;5049972;28;1275;-81
2021/05/30 04:59:40;;;;;;;;;;;;;;;8.10;92.18;102911.13;5050572;28;991;-81
2021/05/30 05:02:05;;;;;;;;;;;;;;;8.35;91.20;102913.00;5051756;28;1911;-81
2021/05/30 05:04:31;;;;;;;;;;;;;;;8.48;90.42;102908.91;5047390;28;1848;-81
2021/05/30 05:06:56;;;;;;;;;;;;;;;8.47;89.58;102908.03;5074398;28;802;-80
2021/05/30 05:09:21;;;;;;;;;;;;;;;8.56;89.00;102913.81;5057075;28;1879;-81
2021/05/30 05:11:47;;;;;;;;;;;;;;;8.64;89.20;102906.91;5074756;28;933;-81
2021/05/30 05:14:12;;;;;;;;;;;;;;;8.50;88.70;102914.13;5075022;28;1066;-81
2021/05/30 05:16:38;;;;;;;;;;;;;;;8.58;89.82;102905.28;5060065;28;2112;-81
2021/05/30 05:19:03;;;;;;;;;;;;;;;8.68;88.66;102907.19;5051032;28;1908;-80
2021/05/30 05:21:28;;;;;;;;;;;;;;;8.76;88.55;102906.59;5090241;28;1251;-81
2021/05/30 05:23:54;;;;;;;;;;;;;;;8.92;88.00;102915.63;5075323;28;769;-81
2021/05/30 05:26:20;;;;;;;;;;;;;;;8.96;87.22;102917.53;5072923;28;927;-81
2021/05/30 05:28:45;;;;;;;;;;;;;;;8.98;87.60;102915.34;5072099;28;2115;-81
2021/05/30 05:31:10;;;;;;;;;;;;;;;9.04;87.04;102916.94;5066429;28;1942;-82
2021/05/30 05:33:36;;;;;;;;;;;;;;;9.10;85.79;102917.75;5068521;28;2016;-81
2021/05/30 05:36:02;;;;;;;;;;;;;;;9.03;86.17;102912.56;5035657;28;1280;-81
2021/05/30 05:38:28;;;;;;;;;;;;;;;9.19;86.19;102913.28;5035499;28;1178;-81
2021/05/30 05:40:53;;;;;;;;;;;;;;;9.36;85.21;102915.69;5053904;28;1043;-81
2021/05/30 05:43:21;;;;;;;;;;;;;;;9.44;84.62;102910.66;5052959;28;1091;-82
2021/05/30 05:45:47;;;;;;;;;;;;;;;9.52;84.62;102915.59;5049701;28;1946;-80
2021/05/30 05:48:16;;;;;;;;;;;;;;;9.63;83.24;102919.91;5053519;28;2010;-81
2021/05/30 05:50:44;;;;;;;;;;;;;;;9.54;82.67;102916.13;5034047;28;1070;-81
2021/05/30 05:53:09;;;;;;;;;;;;;;;9.53;82.92;102919.97;5035140;28;1199;-81
2021/05/30 05:55:35;;;;;;;;;;;;;;;9.66;82.93;102921.28;5067679;28;967;-81
2021/05/30 05:58:01;;;;;;;;;;;;;;;9.70;82.57;102925.09;5033999;28;1456;-81
2021/05/30 06:00:27;;;;;;;;;;;;;;;9.56;79.85;102920.22;5049926;28;2012;-81
2021/05/30 06:02:53;;;;;;;;;;;;;;;9.34;82.21;102923.41;5055229;28;1452;-81
2021/05/30 06:05:20;;;;;;;;;;;;;;;9.57;82.81;102930.16;5052729;28;2006;-81
2021/05/30 06:07:47;;;;;;;;;;;;;;;9.86;82.24;102923.06;5035744;28;1209;-81
2021/05/30 06:10:14;;;;;;;;;;;;;;;10.22;81.59;102923.56;5052478;28;1943;-81
2021/05/30 06:12:40;;;;;;;;;;;;;;;10.39;80.29;102917.63;5053672;28;1732;-82
2021/05/30 06:15:06;;;;;;;;;;;;;;;10.41;79.28;102912.63;5050779;28;1177;-81
2021/05/30 06:17:31;;;;;;;;;;;;;;;10.24;78.88;102921.31;5071205;28;2167;-81
2021/05/30 06:19:57;;;;;;;;;;;;;;;10.16;79.01;102916.47;5072421;28;1875;-81
2021/05/30 06:22:22;;;;;;;;;;;;;;;10.16;79.80;102922.78;5073469;28;1234;-81
2021/05/30 06:24:47;;;;;;;;;;;;;;;10.39;79.19;102922.34;5072659;28;872;-82
2021/05/30 06:27:13;;;;;;;;;;;;;;;10.52;78.12;102924.41;5052557;28;1988;-82
2021/05/30 06:29:38;;;;;;;;;;;;;;;10.64;78.10;102915.69;5072062;28;2342;-81
2021/05/30 06:32:04;;;;;;;;;;;;;;;10.60;76.24;102915.47;5068828;28;1968;-82
2021/05/30 06:34:30;;;;;;;;;;;;;;;10.45;77.40;102910.94;5035437;28;1798;-81
2021/05/30 06:36:55;;;;;;;;;;;;;;;10.22;77.49;102917.22;5069239;28;1927;-83
2021/05/30 06:39:22;;;;;;;;;;;;;;;10.29;78.42;102921.28;5072358;28;1225;-81
2021/05/30 06:41:48;;;;;;;;;;;;;;;10.52;78.12;102924.41;5071499;28;1374;-81
2021/05/30 06:44:13;;;;;;;;;;;;;;;10.73;77.51;102917.53;5073708;28;936;-81
2021/05/30 06:46:39;;;;;;;;;;;;;;;10.89;76.24;102920.94;5087537;28;979;-81
2021/05/30 06:49:04;;;;;;;;;;;;;;;10.86;75.14;102918.75;5058278;28;4793;-81
2021/05/30 06:51:35;;;;;;;;;;;;;;;10.78;76.36;102921.34;5072706;28;988;-82
2021/05/30 06:54:03;;;;;;;;;;;;;;;10.78;76.03;102918.59;5072718;28;1367;-82
2021/05/30 06:56:28;;;;;;;;;;;;;;;10.80;74.50;102924.66;5058256;28;1035;-82
2021/05/30 06:58:54;;;;;;;;;;;;;;;10.62;75.55;102924.28;5070342;28;2109;-81
2021/05/30 07:01:21;;;;;;;;;;;;;;;10.91;75.32;102921.44;5072135;28;1067;-81
2021/05/30 07:03:48;;;;;;;;;;;;;;;11.18;74.92;102931.06;5070594;28;2068;-81
2021/05/30 07:06:14;;;;;;;;;;;;;;;11.31;74.03;102923.97;5071968;28;915;-81
2021/05/30 07:08:40;;;;;;;;;;;;;;;11.31;73.47;102929.50;5070768;28;1936;-83
2021/05/30 07:11:06;;;;;;;;;;;;;;;11.39;73.25;102926.06;5071618;28;1011;-82
2021/05/30 07:13:43;;;;;;;;;;;;;;;11.45;73.36;102918.53;5057633;28;923;-83
2021/05/30 07:16:11;;;;;;;;;;;;;;;11.45;73.01;102919.38;5051747;28;1038;-83
2021/05/30 07:18:37;;;;;;;;;;;;;;;11.57;72.18;102909.78;5039671;28;1920;-83
2021/05/30 07:21:02;;;;;;;;;;;;;;;11.69;71.49;102918.44;5072835;28;742;-83
2021/05/30 07:23:28;;;;;;;;;;;;;;;11.82;70.88;102912.13;5071799;28;935;-83
2021/05/30 07:25:54;;;;;;;;;;;;;;;12.06;70.87;102908.47;5085744;28;1997;-82
2021/05/30 07:28:20;;;;;;;;;;;;;;;12.22;69.49;102923.66;5052000;28;1867;-82
2021/05/30 07:30:46;;;;;;;;;;;;;;;12.27;69.74;102922.75;5065177;28;1532;-81
2021/05/30 07:33:11;;;;;;;;;;;;;;;12.10;70.10;102922.53;5070380;28;892;-81
2021/05/30 07:35:38;;;;;;;;;;;;;;;12.37;70.32;102911.50;5071391;28;1504;-82
2021/05/30 07:38:04;;;;;;;;;;;;;;;12.62;69.08;102917.66;5061882;28;1780;-81
2021/05/30 07:40:29;;;;;;;;;;;;;;;12.60;69.05;102920.75;5057229;28;1848;-77
2021/05/30 07:42:55;;;;;;;;;;;;;;;12.44;68.87;102916.63;5056205;28;900;-77
2021/05/30 07:45:21;;;;;;;;;;;;;;;12.47;69.10;102923.50;5056410;28;2072;-77
2021/05/30 07:47:47;;;;;;;;;;;;;;;12.39;68.76;102920.31;5039968;28;1205;-77
2021/05/30 07:50:14;;;;;;;;;;;;;;;12.52;68.85;102920.63;5037033;28;1945;-77
2021/05/30 07:52:40;;;;;;;;;;;;;;;12.50;68.39;102918.16;5049032;28;2024;-78
2021/05/30 07:55:07;;;;;;;;;;;;;;;12.61;68.26;102921.56;5039689;28;1808;-77
2021/05/30 07:57:32;;;;;;;;;;;;;;;12.72;68.44;102917.47;5039410;28;1292;-77
2021/05/30 07:59:58;;;;;;;;;;;;;;;12.61;68.04;102910.47;5076886;28;1012;-78
2021/05/30 08:02:23;;;;;;;;;;;;;;;12.76;68.28;102917.66;5076946;28;900;-77
2021/05/30 08:04:49;;;;;;;;;;;;;;;12.90;67.41;102915.69;5042233;28;1993;-77
2021/05/30 08:07:15;;;;;;;;;;;;;;;13.13;67.15;102913.84;5045566;28;2208;-78
2021/05/30 08:09:40;;;;;;;;;;;;;;;13.31;66.75;102920.41;5056845;28;1953;-78
2021/05/30 08:12:06;;;;;;;;;;;;;;;13.23;66.30;102923.06;5046510;28;1820;-77
2021/05/30 08:14:31;;;;;;;;;;;;;;;13.18;66.72;102918.44;5039937;28;858;-77
2021/05/30 08:16:58;;;;;;;;;;;;;;;13.29;66.68;102928.19;5038922;28;2024;-77
2021/05/30 08:19:23;;;;;;;;;;;;;;;13.51;65.47;102935.78;5055366;28;1331;-78
2021/05/30 08:21:49;;;;;;;;;;;;;;;13.48;65.52;102932.81;5052178;28;1890;-80
2021/05/30 08:24:15;;;;;;;;;;;;;;;13.40;64.93;102923.25;5045480;28;1973;-78
2021/05/30 08:26:40;;;;;;;;;;;;;;;13.54;64.70;102928.75;5055914;28;2155;-77
2021/05/30 08:29:05;;;;;;;;;;;;;;;13.57;65.34;102925.34;5056007;28;2132;-78
2021/05/30 08:31:30;;;;;;;;;;;;;;;13.51;64.46;102921.06;5057620;28;877;-78
2021/05/30 08:33:56;;;;;;;;;;;;;;;13.67;64.68;102919.56;5056069;28;920;-78
2021/05/30 08:36:21;;;;;;;;;;;;;;;14.08;63.56;102920.50;5043984;28;1899;-77
2021/05/30 08:38:46;;;;;;;;;;;;;;;14.39;62.85;102922.47;5052299;28;1248;-77
2021/05/30 08:41:12;;;;;;;;;;;;;;;14.74;62.35;102917.91;5056124;28;1957;-78
2021/05/30 08:43:37;;;;;;;;;;;;;;;14.83;62.44;102921.53;5042583;28;2027;-78
2021/05/30 08:46:03;;;;;;;;;;;;;;;14.93;61.57;102914.84;5038532;28;1836;-78
2021/05/30 08:48:28;;;;;;;;;;;;;;;15.09;61.42;102919.94;5040871;28;1898;-78
2021/05/30 08:51:03;;;;;;;;;;;;;;;15.63;59.85;102919.69;5056450;28;952;-78
2021/05/30 08:53:35;;;;;;;;;;;;;;;16.43;58.19;102913.63;5056846;28;2231;-78
2021/05/30 08:56:01;;;;;;;;;;;;;;;16.82;55.95;102914.41;5056052;28;1794;-78
2021/05/30 08:58:42;;;;;;;;;;;;;;;16.76;56.71;102919.38;5059958;28;2110;-83
2021/05/30 09:01:16;;;;;;;;;;;;;;;16.92;56.24;102916.84;5050661;28;1024;-82
2021/05/30 09:03:54;;;;;;;;;;;;;;;16.43;55.82;102911.66;5052046;28;1824;-82
2021/05/30 09:06:20;;;;;;;;;;;;;;;16.46;57.20;102915.75;5052941;28;2009;-83
2021/05/30 09:08:49;;;;;;;;;;;;;;;16.65;55.99;102912.56;5070442;28;1952;-82
2021/05/30 09:11:14;;;;;;;;;;;;;;;17.35;55.29;102907.38;5066152;28;1002;-82
2021/05/30 09:13:59;;;;;;;;;;;;;;;17.46;53.48;102911.41;5051563;28;1050;-82
2021/05/30 09:16:46;;;;;;;;;;;;;;;18.12;52.19;102895.84;5057284;28;1892;-82
2021/05/30 09:19:37;;;;;;;;;;;;;;;20.16;48.58;102899.63;5072076;28;1256;-82
2021/05/30 09:22:29;;;;;;;;;;;;;;;23.20;40.88;102889.25;5064020;28;1914;-83
2021/05/30 09:24:59;;;;;;;;;;;;;;;22.76;39.41;102893.44;5071800;28;1202;-82
2021/05/30 09:27:26;;;;;;;;;;;;;;;24.48;39.52;102883.34;5071274;28;1220;-83
2021/05/30 09:30:16;;;;;;;;;;;;;;;27.95;32.27;102874.72;5071685;28;1874;-82
2021/05/30 09:32:54;;;;;;;;;;;;;;;30.15;28.17;102865.22;5071075;28;978;-84
2021/05/30 09:35:24;;;;;;;;;;;;;;;30.19;26.85;102857.44;5069651;28;1831;-81
2021/05/30 09:38:25;;;;;;;;;;;;;;;28.66;29.92;102869.66;5068805;28;1878;-82
2021/05/30 09:40:55;;;;;;;;;;;;;;;29.23;28.56;102853.97;5069115;28;2075;-83
2021/05/30 09:43:36;;;;;;;;;;;;;;;30.08;27.62;102858.84;5074124;28;2177;-83
2021/05/30 09:46:08;;;;;;;;;;;;;;;31.01;26.64;102851.44;5055835;28;924;-83
2021/05/30 09:48:38;;;;;;;;;;;;;;;31.36;25.33;102843.34;5057224;28;1952;-83
2021/05/30 09:51:33;;;;;;;;;;;;;;;31.35;24.48;102838.88;5061002;28;995;-83
2021/05/30 09:54:07;;;;;;;;;;;;;;;31.61;25.04;102845.63;5059297;28;912;-83
2021/05/30 09:56:38;;;;;;;;;;;;;;;31.86;24.79;102842.19;5076779;28;1758;-83
2021/05/30 09:59:09;;;;;;;;;;;;;;;31.94;22.60;102833.44;5079487;28;1154;-83
2021/05/30 10:01:59;;;;;;;;;;;;;;;32.10;24.59;102841.22;5072206;28;1070;-84
2021/05/30 10:04:29;;;;;;;;;;;;;;;33.18;22.52;102833.34;5050718;28;935;-83
2021/05/30 10:06:56;;;;;;;;;;;;;;;33.38;22.58;102832.31;5049719;28;857;-82
2021/05/30 10:09:22;;;;;;;;;;;;;;;33.57;22.53;102830.47;5050781;28;1965;-81
2021/05/30 10:11:47;;;;;;;;;;;;;;;33.41;22.55;102825.69;5051481;28;896;-82
2021/05/30 10:14:13;;;;;;;;;;;;;;;33.37;23.47;102834.38;5068503;28;1066;-82
2021/05/30 10:16:39;;;;;;;;;;;;;;;32.89;22.60;102830.50;5052408;28;1794;-80
2021/05/30 10:19:14;;;;;;;;;;;;;;;32.81;23.19;102832.78;5071005;28;1933;-83
2021/05/30 10:21:45;;;;;;;;;;;;;;;33.13;21.08;102826.06;5063049;28;2782;-80
2021/05/30 10:24:12;;;;;;;;;;;;;;;33.80;21.10;102815.03;5049389;28;948;-80
2021/05/30 10:26:37;;;;;;;;;;;;;;;34.15;20.19;102823.66;5065542;28;1656;-81
2021/05/30 10:29:16;;;;;;;;;;;;;;;33.79;20.41;102822.00;5065254;28;1200;-81
2021/05/30 10:31:44;;;;;;;;;;;;;;;33.65;20.26;102824.06;5065538;28;1799;-82
2021/05/30 10:34:17;;;;;;;;;;;;;;;33.65;20.99;102814.66;5066076;28;1170;-82
2021/05/30 10:36:55;;;;;;;;;;;;;;;33.68;21.98;102817.44;5063521;28;1764;-83
2021/05/30 10:39:29;;;;;;;;;;;;;;;33.99;21.89;102813.97;5054125;28;1867;-83
2021/05/30 10:42:09;;;;;;;;;;;;;;;34.47;20.38;102808.22;5047531;28;956;-83
2021/05/30 10:44:53;;;;;;;;;;;;;;;34.28;20.28;102815.84;5051921;28;1331;-82
2021/05/30 10:47:41;;;;;;;;;;;;;;;34.36;20.47;102807.78;5081846;28;1236;-83
2021/05/30 10:50:19;;;;;;;;;;;;;;;34.44;20.90;102801.31;5064832;28;1248;-83
2021/05/30 10:52:48;;;;;;;;;;;;;;;34.44;20.46;102800.53;5064096;28;1310;-83
2021/05/30 10:55:17;;;;;;;;;;;;;;;34.70;20.55;102804.06;5035985;28;1870;-83
2021/05/30 10:57:50;;;;;;;;;;;;;;;34.88;19.52;102805.47;5047338;28;1303;-83
2021/05/30 11:00:19;;;;;;;;;;;;;;;34.96;19.16;102799.00;5063020;28;1893;-84
2021/05/30 11:05:41;;;;;;;;;;;;;;;35.41;19.22;102802.56;5047034;28;784;-83
2021/05/30 11:08:07;;;;;;;;;;;;;;;35.57;18.98;102810.91;5036722;28;1978;-83
2021/05/30 11:10:34;;;;;;;;;;;;;;;35.86;18.51;102804.00;5045409;28;1256;-82
2021/05/30 11:13:02;;;;;;;;;;;;;;;35.77;18.43;102806.84;5048375;28;1294;-82
2021/05/30 11:15:30;;;;;;;;;;;;;;;34.93;19.56;102807.72;5047622;28;1253;-83
2021/05/30 11:17:58;;;;;;;;;;;;;;;35.15;20.81;102799.88;5046396;28;1252;-82
2021/05/30 11:20:28;;;;;;;;;;;;;;;35.06;19.35;102791.25;5062437;28;2072;-83
2021/05/30 11:22:57;;;;;;;;;;;;;;;34.43;19.67;102790.31;5063609;28;1177;-82
2021/05/30 11:25:36;;;;;;;;;;;;;;;34.45;20.09;102794.34;5064460;28;1023;-82
2021/05/30 11:28:06;;;;;;;;;;;;;;;34.70;20.36;102791.81;5064010;28;1236;-82
2021/05/30 11:30:43;;;;;;;;;;;;;;;35.13;20.50;102782.34;5063932;28;1043;-82
2021/05/30 11:33:15;;;;;;;;;;;;;;;35.57;18.91;102782.19;5045028;28;1023;-82
2021/05/30 11:35:41;;;;;;;;;;;;;;;36.11;18.63;102777.03;5044936;28;912;-83
2021/05/30 11:38:07;;;;;;;;;;;;;;;36.40;18.34;102775.75;5057805;28;1236;-83
2021/05/30 11:40:40;;;;;;;;;;;;;;;36.03;18.38;102781.50;5067438;28;1890;-83
2021/05/30 11:43:29;;;;;;;;;;;;;;;35.46;18.26;102781.06;5047638;28;1107;-82
2021/05/30 11:45:58;;;;;;;;;;;;;;;35.67;19.10;102785.91;5064197;28;1944;-83
2021/05/30 11:48:26;;;;;;;;;;;;;;;35.42;18.99;102777.53;5047302;28;1189;-84
2021/05/30 11:50:53;;;;;;;;;;;;;;;35.08;19.01;102768.59;5066159;28;1195;-82
2021/05/30 11:53:28;;;;;;;;;;;;;;;35.19;19.05;102771.03;5056934;28;1820;-83
2021/05/30 11:56:44;;;;;;;;;;;;;;;35.53;19.45;102766.41;5038264;28;1864;-83
2021/05/30 11:59:10;;;;;;;;;;;;;;;36.38;19.44;102766.03;5061008;28;1882;-83
2021/05/30 12:02:03;;;;;;;;;;;;;;;37.11;17.23;102761.38;5046645;28;1078;-83
2021/05/30 12:04:36;;;;;;;;;;;;;;;36.30;18.75;102768.44;5044463;28;1124;-83
2021/05/30 12:07:14;;;;;;;;;;;;;;;36.06;18.88;102756.75;5046346;28;1217;-86
2021/05/30 12:09:50;;;;;;;;;;;;;;;35.28;19.45;102758.81;5059118;28;1851;-83
2021/05/30 12:12:48;;;;;;;;;;;;;;;35.29;20.02;102757.56;5062892;28;2004;-82
2021/05/30 12:15:21;;;;;;;;;;;;;;;36.30;18.87;102754.06;5045875;28;1501;-83
2021/05/30 12:18:13;;;;;;;;;;;;;;;36.03;18.88;102751.94;5047912;28;1953;-83
2021/05/30 12:20:41;;;;;;;;;;;;;;;35.51;19.09;102749.63;5065810;28;1133;-83
2021/05/30 12:23:22;;;;;;;;;;;;;;;35.71;18.69;102751.25;5066424;28;1920;-83
2021/05/30 12:26:16;;;;;;;;;;;;;;;35.39;19.49;102748.50;5077903;28;1651;-83
2021/05/30 12:28:58;;;;;;;;;;;;;;;;;;;;;
2021/05/30 12:31:33;;;;;;;;;;;;;;;35.19;19.33;102746.00;5054384;28;1379;-84
2021/05/30 12:34:03;;;;;;;;;;;;;;;35.54;19.46;102742.13;5063209;28;1176;-84
2021/05/30 12:36:35;;;;;;;;;;;;;;;36.26;18.54;102747.69;5046208;28;1958;-83
2021/05/30 12:39:06;;;;;;;;;;;;;;;36.37;18.32;102756.59;5046039;28;1940;-82
2021/05/30 12:45:06;;;;;;;;;;;;;;;;;;;;;
2021/05/30 12:47:40;;;;;;;;;;;;;;;34.13;20.19;102740.22;5044623;28;1275;-84
2021/05/30 12:50:39;;;;;;;;;;;;;;;33.84;18.98;102739.16;5045784;28;808;-83
2021/05/30 12:53:10;;;;;;;;;;;;;;;32.96;20.86;102747.31;5047009;28;1938;-84
2021/05/30 12:55:40;;;;;;;;;;;;;;;32.56;21.70;102747.69;5040462;28;1861;-83
2021/05/30 12:58:19;;;;;;;;;;;;;;;33.40;20.96;102741.06;5064513;28;1208;-83
2021/05/30 13:00:48;;;;;;;;;;;;;;;33.16;19.74;102732.84;5062087;28;2157;-84
2021/05/30 13:03:24;;;;;;;;;;;;;;;32.17;21.55;102744.72;5057648;28;1131;-84
2021/05/30 13:05:49;;;;;;;;;;;;;;;32.17;21.12;102746.78;5058050;28;1646;-86
2021/05/30 13:08:29;;;;;;;;;;;;;;;32.09;21.74;102734.72;5062280;28;1411;-85
2021/05/30 13:11:08;;;;;;;;;;;;;;;31.80;21.26;102732.59;5062847;28;833;-83
2021/05/30 13:13:42;;;;;;;;;;;;;;;32.23;22.90;102731.47;5043921;28;3066;-83